Terminal Aerodrome Forecast
Issued by NWS

Home | Current Version | Previous Version | Text Only | Print | Product List | Glossary On
Versions: 1 2 3 4 5 6 7 8 9 10 11 12 13 14 15
060
FTUS46 KSEW 121735
TAFBLI
TAF
KBLI 121735Z 1218/1318 15012G18KT 3SM -RA BR SCT008 OVC012
     FM122000 18010KT P6SM VCSH SCT018 BKN035
     FM131000 16007KT P6SM -RA SCT020 OVC040=

USA.gov is the U.S. government's official web portal to all federal, state and local government web resources and services.